Time;durP1;ratioP1;P1;durP2;ratioP2;P2;SDS_P1;SDS_P2;PMS_P1;PMS_P2;Temp;Humidity;BMP_temperature;BMP_pressure;BME280_temperature;BME280_humidity;BME280_pressure;Samples;Min_cycle;Max_cycle;Signal;HPM_P1;HPM_P2
2021/09/24 00:01:36;;;;;;;12.17;9.67;;;16.60;99.90;;;;;;5085899;28;20188;-38
2021/09/24 00:04:02;;;;;;;13.17;11.90;;;16.60;99.90;;;;;;5086107;28;20698;-39
2021/09/24 00:06:27;;;;;;;15.50;11.60;;;16.50;99.90;;;;;;5086360;28;20463;-37
2021/09/24 00:08:53;;;;;;;15.83;12.30;;;16.50;99.90;;;;;;5084853;28;20646;-37
2021/09/24 00:11:19;;;;;;;15.33;12.17;;;16.50;99.90;;;;;;5074122;28;20183;-38
2021/09/24 00:13:45;;;;;;;15.20;12.37;;;16.50;99.90;;;;;;5083144;28;20188;-38
2021/09/24 00:16:11;;;;;;;16.07;13.03;;;16.50;99.90;;;;;;5072370;28;20451;-37
2021/09/24 00:18:36;;;;;;;16.53;13.30;;;16.50;99.90;;;;;;5075997;28;20667;-37
2021/09/24 00:21:02;;;;;;;15.93;12.67;;;16.50;99.90;;;;;;5085468;28;20176;-37
2021/09/24 00:23:28;;;;;;;15.90;13.60;;;16.50;99.90;;;;;;5086081;28;20744;-38
2021/09/24 00:25:53;;;;;;;14.67;12.47;;;16.50;99.90;;;;;;5085977;28;20181;-38
2021/09/24 00:28:19;;;;;;;15.30;13.17;;;16.50;99.90;;;;;;5085822;28;20212;-38
2021/09/24 00:30:45;;;;;;;17.37;15.57;;;16.50;99.90;;;;;;5085223;28;20227;-37
2021/09/24 00:33:11;;;;;;;17.80;14.93;;;16.50;99.90;;;;;;5080729;28;20185;-38
2021/09/24 00:35:36;;;;;;;17.37;15.57;;;16.50;99.90;;;;;;5081211;28;20948;-37
2021/09/24 00:38:02;;;;;;;15.90;13.87;;;16.50;99.90;;;;;;5085895;28;20212;-38
2021/09/24 00:40:31;;;;;;;17.93;15.37;;;16.50;99.90;;;;;;5085330;28;20573;-37
2021/09/24 00:42:57;;;;;;;19.70;17.50;;;16.50;99.90;;;;;;5084450;28;20199;-37
2021/09/24 00:45:23;;;;;;;19.67;16.30;;;16.50;99.90;;;;;;5085630;28;20418;-37
2021/09/24 00:47:49;;;;;;;19.40;16.90;;;16.50;99.90;;;;;;5084985;28;20423;-37
2021/09/24 00:50:14;;;;;;;19.80;17.03;;;16.40;99.90;;;;;;5078432;28;20407;-37
2021/09/24 00:52:40;;;;;;;18.83;16.83;;;16.40;99.90;;;;;;5083632;28;20184;-37
2021/09/24 00:55:06;;;;;;;19.63;16.80;;;16.40;99.90;;;;;;5085643;28;20264;-37
2021/09/24 00:57:32;;;;;;;19.00;16.77;;;16.50;99.90;;;;;;5085766;28;20245;-38
2021/09/24 00:59:58;;;;;;;20.70;15.87;;;16.50;99.90;;;;;;5083520;28;20446;-37
2021/09/24 01:02:23;;;;;;;20.30;17.40;;;16.50;99.90;;;;;;5085812;28;20185;-38
2021/09/24 01:04:49;;;;;;;20.40;17.43;;;16.50;99.90;;;;;;5072840;28;20663;-37
2021/09/24 01:07:15;;;;;;;22.20;18.40;;;16.60;99.90;;;;;;5087533;28;20195;-37
2021/09/24 01:09:40;;;;;;;22.27;17.63;;;16.50;99.90;;;;;;5089092;28;20216;-37
2021/09/24 01:12:07;;;;;;;20.67;17.27;;;16.40;99.90;;;;;;5089753;28;20220;-37
2021/09/24 01:14:33;;;;;;;19.13;16.60;;;16.40;99.90;;;;;;5088951;28;20246;-38
2021/09/24 01:17:00;;;;;;;21.47;17.83;;;16.40;99.90;;;;;;5089974;28;20493;-38
2021/09/24 01:19:26;;;;;;;20.70;16.70;;;16.40;99.90;;;;;;5081690;28;20236;-38
2021/09/24 01:21:52;;;;;;;17.87;15.97;;;16.40;99.90;;;;;;5089431;28;20493;-37
2021/09/24 01:24:19;;;;;;;20.30;18.10;;;16.40;99.90;;;;;;5089175;28;20839;-38
2021/09/24 01:26:47;;;;;;;23.70;19.70;;;16.40;99.90;;;;;;5089590;28;20426;-38
2021/09/24 01:29:13;;;;;;;22.47;18.87;;;16.40;99.90;;;;;;5088364;28;20640;-38
2021/09/24 01:31:40;;;;;;;24.97;20.83;;;16.40;99.90;;;;;;5089431;28;20715;-38
2021/09/24 01:34:05;;;;;;;24.33;21.73;;;16.40;99.90;;;;;;5081959;28;20644;-37
2021/09/24 01:36:31;;;;;;;25.27;21.30;;;16.30;99.90;;;;;;5085430;28;20565;-37
2021/09/24 01:39:04;;;;;;;25.87;22.07;;;16.30;99.90;;;;;;5088532;28;20184;-38
2021/09/24 01:41:29;;;;;;;28.00;21.80;;;16.40;99.90;;;;;;5088887;28;20184;-37
2021/09/24 01:43:55;;;;;;;28.90;23.70;;;16.40;99.90;;;;;;5088520;28;20479;-37
2021/09/24 01:46:20;;;;;;;28.70;22.50;;;16.30;99.90;;;;;;5088857;28;20200;-37
2021/09/24 01:48:46;;;;;;;28.83;21.90;;;16.40;99.90;;;;;;5086816;28;20180;-37
2021/09/24 01:51:12;;;;;;;32.40;22.60;;;16.40;99.90;;;;;;5081419;28;20180;-37
2021/09/24 01:53:37;;;;;;;29.93;24.37;;;16.40;99.90;;;;;;5087566;28;20220;-37
2021/09/24 01:56:03;;;;;;;30.53;23.90;;;16.40;99.90;;;;;;5089004;28;20231;-37
2021/09/24 01:58:29;;;;;;;31.83;23.97;;;16.40;99.90;;;;;;5088560;28;20420;-38
2021/09/24 02:00:55;;;;;;;29.40;24.40;;;16.50;99.90;;;;;;5088340;28;20491;-37
2021/09/24 02:03:20;;;;;;;33.67;26.37;;;16.40;99.90;;;;;;5088233;28;20184;-37
2021/09/24 02:05:46;;;;;;;30.63;24.57;;;16.40;99.90;;;;;;5078024;28;20184;-38
2021/09/24 02:08:12;;;;;;;30.13;25.53;;;16.40;99.90;;;;;;5088038;28;20311;-37
2021/09/24 02:10:37;;;;;;;32.23;25.40;;;16.40;99.90;;;;;;5088331;28;20216;-37
2021/09/24 02:13:03;;;;;;;33.40;26.97;;;16.50;99.90;;;;;;5087963;28;20203;-37
2021/09/24 02:15:29;;;;;;;36.97;26.63;;;16.40;99.90;;;;;;5088464;28;20195;-37
2021/09/24 02:17:56;;;;;;;30.03;23.90;;;16.40;99.90;;;;;;5087236;28;20458;-37
2021/09/24 02:20:21;;;;;;;30.37;24.27;;;16.40;99.90;;;;;;5079358;28;20458;-38
2021/09/24 02:22:47;;;;;;;29.13;24.57;;;16.40;99.90;;;;;;5087872;28;20460;-37
2021/09/24 02:25:13;;;;;;;29.70;23.00;;;16.40;99.90;;;;;;5088647;28;20647;-37
2021/09/24 02:27:38;;;;;;;28.03;23.20;;;16.40;99.90;;;;;;5086734;28;20604;-37
2021/09/24 02:30:05;;;;;;;28.60;22.30;;;16.40;99.90;;;;;;5088033;28;20212;-37
2021/09/24 02:32:32;;;;;;;25.20;21.80;;;16.40;99.90;;;;;;5088007;28;20490;-37
2021/09/24 02:34:58;;;;;;;25.00;21.40;;;16.30;99.90;;;;;;5077752;28;20427;-37
2021/09/24 02:37:24;;;;;;;24.60;20.30;;;16.40;99.90;;;;;;5083276;28;20530;-37
2021/09/24 02:39:50;;;;;;;26.77;21.37;;;16.30;99.90;;;;;;5087032;28;20521;-37
2021/09/24 02:42:15;;;;;;;24.90;20.50;;;16.40;99.90;;;;;;5088067;28;20271;-38
2021/09/24 02:44:41;;;;;;;21.33;19.03;;;16.40;99.90;;;;;;5087622;28;20216;-37
2021/09/24 02:47:10;;;;;;;23.30;19.80;;;16.40;99.90;;;;;;5087898;28;20185;-37
2021/09/24 02:49:37;;;;;;;25.90;20.87;;;16.40;99.90;;;;;;5079034;28;20660;-37
2021/09/24 02:52:05;;;;;;;26.57;20.40;;;16.40;99.90;;;;;;5084459;28;20406;-37
2021/09/24 02:54:31;;;;;;;21.87;19.40;;;16.40;99.90;;;;;;5087289;28;20471;-38
2021/09/24 02:56:57;;;;;;;24.97;21.10;;;16.40;99.90;;;;;;5088047;28;20470;-37
2021/09/24 02:59:22;;;;;;;26.30;21.47;;;16.40;99.90;;;;;;5086704;28;20653;-37
2021/09/24 03:01:48;;;;;;;27.60;22.03;;;16.40;99.90;;;;;;5087677;28;20567;-38
2021/09/24 03:04:14;;;;;;;25.60;22.40;;;16.40;99.90;;;;;;5083718;28;20873;-37
2021/09/24 03:06:40;;;;;;;27.50;23.23;;;16.40;99.90;;;;;;5078844;28;20228;-37
2021/09/24 03:09:06;;;;;;;32.77;23.70;;;16.40;99.90;;;;;;5085975;28;20239;-37
2021/09/24 03:11:32;;;;;;;32.97;26.97;;;16.40;99.90;;;;;;5086888;28;20467;-38
2021/09/24 03:13:58;;;;;;;33.33;27.20;;;16.40;99.90;;;;;;5087012;28;20426;-37
2021/09/24 03:16:23;;;;;;;30.70;24.83;;;16.40;99.90;;;;;;5087198;28;20287;-37
2021/09/24 03:18:49;;;;;;;33.43;27.90;;;16.40;99.90;;;;;;5087168;28;20351;-37
2021/09/24 03:21:15;;;;;;;30.67;27.37;;;16.30;99.90;;;;;;5076499;28;20188;-37
2021/09/24 03:23:41;;;;;;;31.77;26.90;;;16.30;99.90;;;;;;5087151;28;20535;-38
2021/09/24 03:26:07;;;;;;;34.83;28.40;;;16.30;99.90;;;;;;5087011;28;20426;-37
2021/09/24 03:28:33;;;;;;;31.57;26.20;;;16.30;99.90;;;;;;5087086;28;20731;-37
2021/09/24 03:30:59;;;;;;;37.00;28.13;;;16.30;99.90;;;;;;5086154;28;20191;-37
2021/09/24 03:33:24;;;;;;;34.30;27.60;;;16.30;99.90;;;;;;5086896;28;20800;-37
2021/09/24 03:35:50;;;;;;;36.30;28.37;;;16.40;99.90;;;;;;5074792;28;20188;-37
2021/09/24 03:38:15;;;;;;;37.37;29.43;;;16.40;99.90;;;;;;5086739;28;20239;-37
2021/09/24 03:40:41;;;;;;;35.77;27.70;;;16.40;99.90;;;;;;5085988;28;20196;-38
2021/09/24 03:43:07;;;;;;;37.60;29.97;;;16.30;99.90;;;;;;5086909;28;20196;-37
2021/09/24 03:45:33;;;;;;;35.53;28.17;;;16.30;99.90;;;;;;5086358;28;21235;-37
2021/09/24 03:47:58;;;;;;;32.90;27.60;;;16.30;99.90;;;;;;5086784;28;20196;-38
2021/09/24 03:50:24;;;;;;;36.33;28.70;;;16.30;99.90;;;;;;5077722;28;20272;-37
2021/09/24 03:52:51;;;;;;;36.63;29.17;;;16.30;99.90;;;;;;5082526;28;20198;-38
2021/09/24 03:55:17;;;;;;;35.43;26.73;;;16.40;99.90;;;;;;5086544;28;20426;-37
2021/09/24 03:57:43;;;;;;;36.37;28.33;;;16.40;99.90;;;;;;5086075;28;21148;-37
2021/09/24 04:00:09;;;;;;;34.27;28.10;;;16.40;99.90;;;;;;5085862;28;20188;-37
2021/09/24 04:02:34;;;;;;;34.33;26.43;;;16.40;99.90;;;;;;5086180;28;20188;-38
2021/09/24 04:05:00;;;;;;;38.50;29.93;;;16.40;99.90;;;;;;5083394;28;20464;-38
2021/09/24 04:07:26;;;;;;;36.80;29.77;;;16.40;99.90;;;;;;5085584;28;20226;-38
2021/09/24 04:09:51;;;;;;;37.23;30.17;;;16.30;99.90;;;;;;5085825;28;20215;-38
2021/09/24 04:12:17;;;;;;;36.67;29.37;;;16.30;99.90;;;;;;5086225;28;20722;-37
2021/09/24 04:14:42;;;;;;;37.07;28.50;;;16.30;99.90;;;;;;5085945;28;20223;-37
2021/09/24 04:17:08;;;;;;;36.50;29.07;;;16.30;99.90;;;;;;5086159;28;20236;-37
2021/09/24 04:19:34;;;;;;;35.17;29.37;;;16.30;99.90;;;;;;5083797;28;20192;-37
2021/09/24 04:22:00;;;;;;;41.67;29.27;;;16.30;99.90;;;;;;5076704;28;20705;-37
2021/09/24 04:24:25;;;;;;;40.67;30.83;;;16.30;99.90;;;;;;5085911;28;20188;-37
2021/09/24 04:26:51;;;;;;;38.50;29.63;;;16.30;99.90;;;;;;5086179;28;20286;-37
2021/09/24 04:29:17;;;;;;;43.40;31.00;;;16.30;99.90;;;;;;5085282;28;20196;-37
2021/09/24 04:31:42;;;;;;;47.47;33.73;;;16.40;99.90;;;;;;5086149;28;20379;-37
2021/09/24 04:34:09;;;;;;;42.27;30.43;;;16.40;99.90;;;;;;5086264;28;20420;-38
2021/09/24 04:36:35;;;;;;;41.47;31.53;;;16.30;99.90;;;;;;5069426;28;20215;-38
2021/09/24 04:39:02;;;;;;;50.40;31.57;;;16.30;99.90;;;;;;5083426;28;20444;-37
2021/09/24 04:41:28;;;;;;;40.80;30.23;;;16.30;99.90;;;;;;5076368;28;20446;-37
2021/09/24 04:43:54;;;;;;;43.33;30.57;;;16.20;99.90;;;;;;5084491;28;20422;-37
2021/09/24 04:46:19;;;;;;;43.17;32.10;;;16.30;99.90;;;;;;5086154;28;20191;-38
2021/09/24 04:48:45;;;;;;;51.33;33.10;;;16.30;99.90;;;;;;5083549;28;20667;-37
2021/09/24 04:51:11;;;;;;;47.83;31.77;;;16.30;99.90;;;;;;5074581;28;20200;-37
2021/09/24 04:53:37;;;;;;;48.87;33.83;;;16.30;99.90;;;;;;5077671;28;20192;-38
2021/09/24 04:56:03;;;;;;;52.20;33.47;;;16.30;99.90;;;;;;5080637;28;20434;-37
2021/09/24 04:58:28;;;;;;;45.30;31.23;;;16.30;99.90;;;;;;5081802;28;20670;-37
2021/09/24 05:00:54;;;;;;;47.03;32.40;;;16.30;99.90;;;;;;5081237;28;20665;-37
2021/09/24 05:03:20;;;;;;;52.80;31.30;;;16.30;99.90;;;;;;5084691;28;20214;-38
2021/09/24 05:05:45;;;;;;;43.47;31.60;;;16.30;99.90;;;;;;5076940;28;20193;-37
2021/09/24 05:08:11;;;;;;;44.97;30.70;;;16.30;99.90;;;;;;5081169;28;20219;-37
2021/09/24 05:10:38;;;;;;;44.87;29.40;;;16.40;99.90;;;;;;5083719;28;20268;-38
2021/09/24 05:13:04;;;;;;;41.80;29.87;;;16.40;99.90;;;;;;5081433;28;20244;-37
2021/09/24 05:15:29;;;;;;;42.07;29.37;;;16.40;99.90;;;;;;5076404;28;20430;-37
2021/09/24 05:17:55;;;;;;;42.23;30.37;;;16.40;99.90;;;;;;5081020;28;20458;-37
2021/09/24 05:20:21;;;;;;;41.30;29.33;;;16.40;99.90;;;;;;5080061;28;20331;-37
2021/09/24 05:22:47;;;;;;;42.03;29.57;;;16.40;99.90;;;;;;5083371;28;20196;-38
2021/09/24 05:25:13;;;;;;;47.73;31.57;;;16.40;99.90;;;;;;5085342;28;20457;-37
2021/09/24 05:27:39;;;;;;;41.90;31.63;;;16.40;99.90;;;;;;5085722;28;20278;-37
2021/09/24 05:30:06;;;;;;;42.63;29.70;;;16.40;99.90;;;;;;5084628;28;20426;-37
2021/09/24 05:32:32;;;;;;;45.53;31.17;;;16.30;99.90;;;;;;5084515;28;20510;-38
2021/09/24 05:34:57;;;;;;;47.10;30.90;;;16.30;99.90;;;;;;5084920;28;20426;-37
2021/09/24 05:37:23;;;;;;;43.00;28.90;;;16.20;99.90;;;;;;5075477;28;20216;-37
2021/09/24 05:39:49;;;;;;;39.70;27.37;;;16.30;99.90;;;;;;5084609;28;20184;-37
2021/09/24 05:42:15;;;;;;;39.80;29.13;;;16.20;99.90;;;;;;5085547;28;20254;-38
2021/09/24 05:44:41;;;;;;;45.00;30.23;;;16.20;99.90;;;;;;5085493;28;20189;-37
2021/09/24 05:47:06;;;;;;;44.20;29.70;;;16.20;99.90;;;;;;5081802;28;20917;-37
2021/09/24 05:49:32;;;;;;;39.00;28.57;;;16.20;99.90;;;;;;5075624;28;20459;-37
2021/09/24 05:51:58;;;;;;;39.00;28.07;;;16.30;99.90;;;;;;5069708;28;20279;-37
2021/09/24 05:54:24;;;;;;;44.17;31.47;;;16.30;99.90;;;;;;5079523;28;20273;-38
2021/09/24 05:56:51;;;;;;;40.77;30.00;;;16.30;99.90;;;;;;5078594;28;20844;-37
2021/09/24 05:59:17;;;;;;;43.27;30.10;;;16.30;99.90;;;;;;5080766;28;20423;-37
2021/09/24 06:01:44;;;;;;;41.47;29.60;;;16.30;99.90;;;;;;5084968;28;20523;-38
2021/09/24 06:04:10;;;;;;;44.10;28.37;;;16.30;99.90;;;;;;5086690;28;20833;-37
2021/09/24 06:06:36;;;;;;;38.57;27.23;;;16.30;99.90;;;;;;5081347;28;20542;-37
2021/09/24 06:09:02;;;;;;;40.90;29.60;;;16.30;99.90;;;;;;5087402;28;20662;-37
2021/09/24 06:11:29;;;;;;;43.77;30.20;;;16.40;99.90;;;;;;5088159;28;20195;-38
2021/09/24 06:13:55;;;;;;;44.73;29.37;;;16.40;99.90;;;;;;5088130;28;20479;-37
2021/09/24 06:16:21;;;;;;;43.30;29.17;;;16.40;99.90;;;;;;5074627;28;20447;-37
2021/09/24 06:18:47;;;;;;;41.50;29.73;;;16.40;99.90;;;;;;5088182;28;20648;-38
2021/09/24 06:21:13;;;;;;;39.10;28.93;;;16.40;99.90;;;;;;5082517;28;20428;-37
2021/09/24 06:23:39;;;;;;;47.20;30.77;;;16.40;99.90;;;;;;5086101;28;20650;-37
2021/09/24 06:26:06;;;;;;;47.20;31.20;;;16.40;99.90;;;;;;5087850;28;20583;-37
2021/09/24 06:28:31;;;;;;;43.13;29.70;;;16.30;99.90;;;;;;5087169;28;20498;-37
2021/09/24 06:30:57;;;;;;;43.70;28.90;;;16.40;99.90;;;;;;5085261;28;21032;-37
2021/09/24 06:33:23;;;;;;;42.40;27.80;;;16.40;99.90;;;;;;5087365;28;20294;-37
2021/09/24 06:35:49;;;;;;;45.70;30.07;;;16.40;99.90;;;;;;5084101;28;20332;-37
2021/09/24 06:38:15;;;;;;;39.70;28.60;;;16.40;99.90;;;;;;5075136;28;20557;-38
2021/09/24 06:40:41;;;;;;;43.43;29.60;;;16.40;99.90;;;;;;5086305;28;20200;-37
2021/09/24 06:43:07;;;;;;;48.47;30.17;;;16.40;99.90;;;;;;5087225;28;20191;-38
2021/09/24 06:45:32;;;;;;;48.53;29.00;;;16.40;99.90;;;;;;5087494;28;20196;-37
2021/09/24 06:47:58;;;;;;;42.43;29.00;;;16.40;99.90;;;;;;5087426;28;20422;-37
2021/09/24 06:50:24;;;;;;;45.23;28.80;;;16.50;99.90;;;;;;5087194;28;20188;-37
2021/09/24 06:52:49;;;;;;;43.23;27.97;;;16.40;99.90;;;;;;5075935;28;20195;-38
2021/09/24 06:55:15;;;;;;;43.00;27.57;;;16.40;99.90;;;;;;5087480;28;20215;-37
2021/09/24 06:57:41;;;;;;;45.10;28.40;;;16.40;99.90;;;;;;5087689;28;20208;-37
2021/09/24 07:00:08;;;;;;;43.67;28.17;;;16.30;99.90;;;;;;5085429;28;20195;-37
2021/09/24 07:02:33;;;;;;;38.90;27.87;;;16.40;99.90;;;;;;5087030;28;20780;-38
2021/09/24 07:04:59;;;;;;;43.23;27.83;;;16.40;99.90;;;;;;5085427;28;20414;-37
2021/09/24 07:07:25;;;;;;;42.10;27.33;;;16.40;99.90;;;;;;5074905;28;20197;-37
2021/09/24 07:09:50;;;;;;;41.00;27.50;;;16.40;99.90;;;;;;5084947;28;20196;-37
2021/09/24 07:12:16;;;;;;;37.70;26.07;;;16.40;99.90;;;;;;5086838;28;20242;-37
2021/09/24 07:14:42;;;;;;;39.50;27.77;;;16.40;99.90;;;;;;5085993;28;20195;-38
2021/09/24 07:17:09;;;;;;;38.60;25.57;;;16.40;99.90;;;;;;5086143;28;20291;-38
2021/09/24 07:19:35;;;;;;;35.07;25.43;;;16.40;99.90;;;;;;5087518;28;20670;-37
2021/09/24 07:22:02;;;;;;;35.63;24.63;;;16.40;99.90;;;;;;5086502;28;20516;-37
2021/09/24 07:24:27;;;;;;;33.60;24.47;;;16.40;99.90;;;;;;5083031;28;20426;-37
2021/09/24 07:26:53;;;;;;;32.63;24.70;;;16.40;99.90;;;;;;5086823;28;20192;-37
2021/09/24 07:29:19;;;;;;;36.03;24.87;;;16.40;99.90;;;;;;5086232;28;20195;-38
2021/09/24 07:31:45;;;;;;;34.43;24.20;;;16.40;99.90;;;;;;5086430;28;20516;-37
2021/09/24 07:34:10;;;;;;;40.43;25.83;;;16.40;99.90;;;;;;5086985;28;20245;-37
2021/09/24 07:36:36;;;;;;;34.70;24.20;;;16.30;99.90;;;;;;5080888;28;20216;-37
2021/09/24 07:39:04;;;;;;;34.33;26.50;;;16.30;99.90;;;;;;5085487;28;20184;-37
2021/09/24 07:41:30;;;;;;;38.23;25.70;;;16.30;99.90;;;;;;5085193;28;20188;-38
2021/09/24 07:43:55;;;;;;;33.10;24.33;;;16.30;99.90;;;;;;5087013;28;20842;-38
2021/09/24 07:46:22;;;;;;;36.67;25.00;;;16.30;99.90;;;;;;5084991;28;20701;-38
2021/09/24 07:48:48;;;;;;;34.60;24.80;;;16.40;99.90;;;;;;5086471;28;20203;-37
2021/09/24 07:51:14;;;;;;;38.73;25.10;;;16.30;99.90;;;;;;5084603;28;20434;-37
2021/09/24 07:53:41;;;;;;;35.07;24.77;;;16.40;99.90;;;;;;5077244;28;20441;-37
2021/09/24 07:56:08;;;;;;;34.37;25.53;;;16.40;99.90;;;;;;5086631;28;20483;-37
2021/09/24 07:58:38;;;;;;;31.17;23.70;;;16.40;99.90;;;;;;5086064;28;20430;-37
2021/09/24 08:01:07;;;;;;;32.90;24.73;;;16.40;99.90;;;;;;5085846;28;21078;-37
2021/09/24 08:03:34;;;;;;;32.73;25.03;;;16.40;99.90;;;;;;5081698;28;20461;-37
2021/09/24 08:05:59;;;;;;;29.73;22.60;;;16.40;99.90;;;;;;5085733;28;20415;-38
2021/09/24 08:08:26;;;;;;;28.50;22.00;;;16.40;99.90;;;;;;5078092;28;20523;-38
2021/09/24 08:10:51;;;;;;;29.93;22.00;;;16.40;99.90;;;;;;5084923;28;20194;-37
2021/09/24 08:13:17;;;;;;;30.23;22.60;;;16.40;99.90;;;;;;5085678;28;20799;-37
2021/09/24 08:15:43;;;;;;;30.97;22.30;;;16.30;99.90;;;;;;5085095;28;20283;-38
2021/09/24 08:18:14;;;;;;;31.03;24.00;;;16.30;99.90;;;;;;5085182;28;20307;-37
2021/09/24 08:20:42;;;;;;;29.17;22.13;;;16.20;99.90;;;;;;5066494;28;20492;-37
2021/09/24 08:23:08;;;;;;;30.67;22.13;;;16.20;99.90;;;;;;5076478;28;20487;-37
2021/09/24 08:25:34;;;;;;;29.30;21.90;;;16.20;99.90;;;;;;5086127;28;20938;-37
2021/09/24 08:27:59;;;;;;;28.93;20.97;;;16.20;99.90;;;;;;5085368;28;20541;-37
2021/09/24 08:30:25;;;;;;;29.20;21.90;;;16.20;99.90;;;;;;5085247;28;20913;-37
2021/09/24 08:32:52;;;;;;;30.90;23.30;;;16.20;99.90;;;;;;5085929;28;20188;-39
2021/09/24 08:35:18;;;;;;;33.03;23.10;;;16.20;99.90;;;;;;5086036;28;20429;-37
2021/09/24 08:37:47;;;;;;;27.80;21.20;;;16.30;99.90;;;;;;5075581;28;20513;-37
2021/09/24 08:40:14;;;;;;;27.17;22.57;;;16.30;99.90;;;;;;5078847;28;20426;-38
2021/09/24 08:42:41;;;;;;;29.77;21.27;;;16.30;99.90;;;;;;5085675;28;20484;-37
2021/09/24 08:45:12;;;;;;;30.77;21.03;;;16.30;99.90;;;;;;5084106;28;20916;-37
2021/09/24 08:47:39;;;;;;;33.63;21.80;;;16.30;99.90;;;;;;5084837;28;20453;-37
2021/09/24 08:50:06;;;;;;;30.17;20.37;;;16.20;99.90;;;;;;5083679;28;20423;-38
2021/09/24 08:52:33;;;;;;;27.20;20.00;;;16.20;99.90;;;;;;5076503;28;20435;-38
2021/09/24 08:54:59;;;;;;;27.67;19.60;;;16.20;99.90;;;;;;5082816;28;20559;-37
2021/09/24 08:57:25;;;;;;;28.30;20.43;;;16.20;99.90;;;;;;5085604;28;20528;-37
2021/09/24 08:59:50;;;;;;;24.40;19.23;;;16.20;99.90;;;;;;5085138;28;20207;-37
2021/09/24 09:02:16;;;;;;;26.90;20.90;;;16.30;99.90;;;;;;5085565;28;20189;-37
2021/09/24 09:04:44;;;;;;;24.60;19.60;;;16.20;99.90;;;;;;5085747;28;20200;-37
2021/09/24 09:07:12;;;;;;;28.90;20.67;;;16.30;99.90;;;;;;5064273;28;20672;-37
2021/09/24 09:09:44;;;;;;;23.77;18.57;;;16.30;99.90;;;;;;5079044;28;20447;-38
2021/09/24 09:12:25;;;;;;;28.90;19.77;;;16.30;99.90;;;;;;5085439;28;20426;-37
2021/09/24 09:15:08;;;;;;;27.03;19.30;;;16.30;99.90;;;;;;5085690;28;20434;-37
2021/09/24 09:17:47;;;;;;;28.60;20.00;;;16.30;99.90;;;;;;5085515;28;20596;-38
2021/09/24 09:20:15;;;;;;;28.07;21.07;;;16.20;99.90;;;;;;5084329;28;20475;-37
2021/09/24 09:26:06;;;;;;;29.27;20.40;;;16.20;99.90;;;;;;5078859;28;20424;-37
2021/09/24 09:28:33;;;;;;;26.67;20.10;;;16.30;99.90;;;;;;5080566;28;20450;-37
2021/09/24 09:31:00;;;;;;;32.20;21.33;;;16.30;99.90;;;;;;5080496;28;20509;-38
2021/09/24 09:33:27;;;;;;;30.07;20.50;;;16.20;99.90;;;;;;5086549;28;21048;-38
2021/09/24 09:35:59;;;;;;;30.30;20.27;;;16.20;99.90;;;;;;5085650;28;20434;-37
2021/09/24 09:38:25;;;;;;;25.07;19.10;;;16.20;99.90;;;;;;5087183;28;20523;-38
2021/09/24 09:41:02;;;;;;;27.67;18.50;;;16.20;99.90;;;;;;5075416;28;20523;-37
2021/09/24 09:43:33;;;;;;;23.60;17.73;;;16.30;99.90;;;;;;5086969;28;20422;-38
2021/09/24 09:46:05;;;;;;;24.73;18.10;;;16.30;99.90;;;;;;5088264;28;20945;-37
2021/09/24 09:48:32;;;;;;;24.80;17.37;;;16.30;99.90;;;;;;5090182;28;20426;-38
2021/09/24 09:50:58;;;;;;;24.50;17.87;;;16.40;99.90;;;;;;5088359;28;20445;-37
2021/09/24 09:53:24;;;;;;;23.70;18.17;;;16.30;99.90;;;;;;5087258;28;21085;-37
2021/09/24 09:55:52;;;;;;;23.90;18.00;;;16.40;99.90;;;;;;5079492;28;20457;-37
2021/09/24 09:58:20;;;;;;;25.53;17.90;;;16.40;99.90;;;;;;5087018;28;20462;-38
2021/09/24 10:00:57;;;;;;;28.23;19.20;;;16.40;99.90;;;;;;5080434;28;20419;-38
2021/09/24 10:03:34;;;;;;;28.90;19.87;;;16.40;99.90;;;;;;5085421;28;20430;-37
2021/09/24 10:06:03;;;;;;;26.13;20.80;;;16.40;99.90;;;;;;5088249;28;20574;-37
2021/09/24 10:08:33;;;;;;;35.80;22.37;;;16.40;99.90;;;;;;5088039;28;20446;-37
2021/09/24 10:11:04;;;;;;;31.10;21.70;;;16.40;99.90;;;;;;5079761;28;20442;-38
2021/09/24 10:13:34;;;;;;;29.67;21.27;;;16.30;99.90;;;;;;5086560;28;20434;-37
2021/09/24 10:16:02;;;;;;;32.33;21.93;;;16.40;99.90;;;;;;5087122;28;20508;-37
2021/09/24 10:18:29;;;;;;;30.87;22.43;;;16.30;99.90;;;;;;5087112;28;20879;-38
2021/09/24 10:20:55;;;;;;;31.30;20.63;;;16.40;99.90;;;;;;5084613;28;20423;-37
2021/09/24 10:23:21;;;;;;;31.53;20.70;;;16.40;99.90;;;;;;5084728;28;20778;-37
2021/09/24 10:25:54;;;;;;;26.77;19.93;;;16.40;99.90;;;;;;5079821;28;20215;-38
2021/09/24 10:28:20;;;;;;;27.97;20.47;;;16.40;99.90;;;;;;5082192;28;20805;-37
2021/09/24 10:30:46;;;;;;;31.70;22.37;;;16.50;99.90;;;;;;5079629;28;20476;-37
2021/09/24 10:33:13;;;;;;;25.70;20.27;;;16.50;99.90;;;;;;5085936;28;20446;-38
2021/09/24 10:35:50;;;;;;;22.30;16.93;;;16.50;99.90;;;;;;5085872;28;20802;-37
2021/09/24 10:38:19;;;;;;;24.40;18.00;;;16.60;99.90;;;;;;5085244;28;20473;-38
2021/09/24 10:41:13;;;;;;;24.80;18.27;;;16.60;99.90;;;;;;5075843;28;20777;-38
2021/09/24 10:43:45;;;;;;;20.73;16.53;;;16.60;99.90;;;;;;5086694;28;20771;-38
2021/09/24 10:46:35;;;;;;;20.97;15.70;;;16.60;99.90;;;;;;5089405;28;20417;-38
2021/09/24 10:49:16;;;;;;;34.97;16.60;;;16.70;99.90;;;;;;5085759;28;20446;-38
2021/09/24 10:51:57;;;;;;;22.77;17.17;;;16.70;99.90;;;;;;5085951;28;20415;-40
2021/09/24 10:54:25;;;;;;;21.63;16.40;;;16.70;99.90;;;;;;5085347;28;20467;-38
2021/09/24 10:57:06;;;;;;;22.73;15.97;;;16.80;99.90;;;;;;5078378;28;20458;-37
2021/09/24 10:59:34;;;;;;;22.63;15.40;;;16.90;99.90;;;;;;5085900;28;20422;-38
2021/09/24 11:02:41;;;;;;;21.03;15.77;;;17.00;99.90;;;;;;5087088;28;20696;-38
2021/09/24 11:05:09;;;;;;;20.47;13.17;;;17.10;99.90;;;;;;5087284;28;20429;-38
2021/09/24 11:07:36;;;;;;;17.33;13.37;;;17.20;99.90;;;;;;5087429;28;20427;-38
2021/09/24 11:10:03;;;;;;;20.17;14.60;;;17.30;99.90;;;;;;5083269;28;20481;-38
2021/09/24 11:12:29;;;;;;;19.33;14.53;;;17.30;99.90;;;;;;5078505;28;20427;-38
2021/09/24 11:15:09;;;;;;;19.20;15.27;;;17.40;99.90;;;;;;5087398;28;20415;-37
2021/09/24 11:17:43;;;;;;;21.87;14.10;;;17.50;99.90;;;;;;5087404;28;20466;-39
2021/09/24 11:20:32;;;;;;;13.40;11.67;;;17.50;99.90;;;;;;5085828;28;20457;-39
2021/09/24 11:22:58;;;;;;;16.70;12.20;;;17.50;99.90;;;;;;5086508;28;20429;-38
2021/09/24 11:25:24;;;;;;;16.30;14.17;;;17.60;99.90;;;;;;5079146;28;20449;-37
2021/09/24 11:27:50;;;;;;;20.20;13.83;;;17.60;99.90;;;;;;5084106;28;20559;-38
2021/09/24 11:30:23;;;;;;;15.63;12.50;;;17.60;99.90;;;;;;5085436;28;20522;-38
2021/09/24 11:32:58;;;;;;;15.23;11.50;;;17.70;99.90;;;;;;5086118;28;20301;-38
2021/09/24 11:35:40;;;;;;;14.50;12.07;;;17.80;99.90;;;;;;5086120;28;21209;-38
2021/09/24 11:38:17;;;;;;;17.03;12.43;;;17.80;99.90;;;;;;5086207;28;20530;-39
2021/09/24 11:40:55;;;;;;;13.30;10.70;;;17.80;99.90;;;;;;5081089;28;20431;-37
2021/09/24 11:43:28;;;;;;;14.30;12.07;;;17.90;99.90;;;;;;5083278;28;20933;-37
2021/09/24 11:45:55;;;;;;;17.73;12.30;;;17.90;99.90;;;;;;5086348;28;20588;-38
2021/09/24 11:48:32;;;;;;;14.80;11.50;;;18.00;99.90;;;;;;5086469;28;20426;-38
2021/09/24 11:51:20;;;;;;;16.90;12.40;;;18.00;99.90;;;;;;5086254;28;20426;-39
2021/09/24 11:53:55;;;;;;;13.87;12.07;;;18.00;99.90;;;;;;5085824;28;20459;-38
2021/09/24 11:56:34;;;;;;;17.83;12.80;;;17.90;99.90;;;;;;5074219;28;20430;-38
2021/09/24 11:59:02;;;;;;;14.17;11.93;;;17.90;99.90;;;;;;5086419;28;20490;-38
2021/09/24 12:01:28;;;;;;;17.03;13.47;;;17.90;99.90;;;;;;5086066;28;20426;-38
2021/09/24 12:03:58;;;;;;;15.83;10.63;;;17.90;99.90;;;;;;5070734;28;20801;-38
2021/09/24 12:06:27;;;;;;;14.20;12.70;;;17.90;99.90;;;;;;5086534;28;20806;-38
2021/09/24 12:08:59;;;;;;;11.77;10.27;;;17.90;99.90;;;;;;5086049;28;20788;-40
2021/09/24 12:11:26;;;;;;;12.70;10.47;;;17.90;99.90;;;;;;5074855;28;20431;-38
2021/09/24 12:13:54;;;;;;;13.37;10.27;;;18.00;99.90;;;;;;5085512;28;20427;-38
2021/09/24 12:16:33;;;;;;;11.73;9.30;;;18.00;99.90;;;;;;5086134;28;21007;-38
2021/09/24 12:19:00;;;;;;;12.23;9.57;;;18.00;99.90;;;;;;5085842;28;20429;-38
2021/09/24 12:21:37;;;;;;;10.50;9.40;;;18.00;99.90;;;;;;5084866;28;20534;-38
2021/09/24 12:24:06;;;;;;;12.80;9.73;;;18.10;99.90;;;;;;5083200;28;20421;-37
2021/09/24 12:26:35;;;;;;;12.90;10.80;;;18.10;99.90;;;;;;5076904;28;20438;-38
2021/09/24 12:29:05;;;;;;;11.60;10.50;;;18.10;99.90;;;;;;5085699;28;20426;-38
2021/09/24 12:31:33;;;;;;;11.77;10.20;;;18.20;99.90;;;;;;5085030;28;20470;-38
2021/09/24 12:33:58;;;;;;;13.10;10.60;;;18.20;99.90;;;;;;5085264;28;20445;-39